createdAt,value
2019-05-06T00:00:30.668Z,9.01
2019-05-06T00:03:05.077Z,9.00
2019-05-06T00:05:38.755Z,8.97
2019-05-06T00:08:14.325Z,8.94
2019-05-06T00:10:48.392Z,8.93
2019-05-06T00:13:24.054Z,8.93
2019-05-06T00:15:57.014Z,8.91
2019-05-06T00:18:30.717Z,8.92
2019-05-06T00:21:05.191Z,8.83
2019-05-06T00:23:44.946Z,8.81
2019-05-06T00:26:37.908Z,8.77
2019-05-06T00:29:17.870Z,8.74
2019-05-06T00:31:51.152Z,8.76
2019-05-06T00:34:25.323Z,8.76
2019-05-06T00:36:58.758Z,8.76
2019-05-06T00:40:06.043Z,8.78
2019-05-06T00:42:54.241Z,8.73
2019-05-06T00:45:28.718Z,8.74
2019-05-06T00:48:04.516Z,8.74
2019-05-06T00:50:37.860Z,8.72
2019-05-06T00:53:14.151Z,8.73
2019-05-06T00:55:47.854Z,8.70
2019-05-06T00:58:23.639Z,8.68
2019-05-06T01:00:56.781Z,8.67
2019-05-06T01:03:30.159Z,8.67
2019-05-06T01:06:04.761Z,8.66
2019-05-06T01:08:38.571Z,8.66
2019-05-06T01:11:14.462Z,8.65
2019-05-06T01:14:07.220Z,8.64
2019-05-06T01:16:43.851Z,8.63
2019-05-06T01:19:16.349Z,8.58
2019-05-06T01:21:50.419Z,8.57
2019-05-06T01:24:24.041Z,8.55
2019-05-06T01:26:57.649Z,8.52
2019-05-06T01:29:31.017Z,8.49
2019-05-06T01:32:05.038Z,8.46
2019-05-06T01:34:39.251Z,8.44
2019-05-06T01:37:14.287Z,8.42
2019-05-06T01:40:04.142Z,8.41
2019-05-06T01:42:50.909Z,8.36
2019-05-06T01:45:24.621Z,8.36
2019-05-06T01:47:58.054Z,8.37
2019-05-06T01:50:34.318Z,8.34
2019-05-06T01:53:07.956Z,8.33
2019-05-06T01:55:41.448Z,8.28
2019-05-06T01:58:14.879Z,8.24
2019-05-06T02:00:48.461Z,8.24
2019-05-06T02:03:24.101Z,8.21
2019-05-06T02:05:57.869Z,8.20
2019-05-06T02:08:33.574Z,8.18
2019-05-06T02:11:07.282Z,8.14
2019-05-06T02:13:40.475Z,8.13
2019-05-06T02:16:14.828Z,8.12
2019-05-06T02:18:47.645Z,8.12
2019-05-06T02:21:40.137Z,8.12
2019-05-06T02:24:19.139Z,8.09
2019-05-06T02:26:54.249Z,8.08
2019-05-06T02:29:29.885Z,8.08
2019-05-06T02:32:30.160Z,8.06
2019-05-06T02:35:05.188Z,8.03
2019-05-06T02:37:40.295Z,8.00
2019-05-06T02:40:33.382Z,8.01
2019-05-06T02:43:08.047Z,7.97
2019-05-06T02:45:43.304Z,7.94
2019-05-06T02:48:26.341Z,7.93
2019-05-06T02:51:13.367Z,7.90
2019-05-06T02:53:47.462Z,7.86
2019-05-06T02:56:23.993Z,7.82
2019-05-06T02:58:57.170Z,7.80
2019-05-06T03:01:33.853Z,7.79
2019-05-06T03:04:05.546Z,7.79
2019-05-06T03:06:39.560Z,7.78
2019-05-06T03:09:13.649Z,7.77
2019-05-06T03:11:47.982Z,7.73
2019-05-06T03:14:23.468Z,7.71
2019-05-06T03:16:57.210Z,7.70
2019-05-06T03:19:34.121Z,7.69
2019-05-06T03:22:43.561Z,7.68
2019-05-06T03:25:34.654Z,7.62
2019-05-06T03:28:08.494Z,7.60
2019-05-06T03:30:45.932Z,7.58
2019-05-06T03:33:44.656Z,7.57
2019-05-06T03:36:06.199Z,7.55
2019-05-06T03:38:28.568Z,7.54
2019-05-06T03:41:03.173Z,7.54
2019-05-06T03:43:36.839Z,7.55
2019-05-06T03:46:35.820Z,7.55
2019-05-06T03:49:09.286Z,7.53
2019-05-06T03:51:43.081Z,7.52
2019-05-06T03:54:18.130Z,7.51
2019-05-06T03:56:53.726Z,7.53
2019-05-06T03:59:28.682Z,7.56
2019-05-06T04:02:05.325Z,7.58
2019-05-06T04:04:39.166Z,7.60
2019-05-06T04:07:14.014Z,7.62
2019-05-06T04:09:47.908Z,7.61
2019-05-06T04:12:23.336Z,7.63
2019-05-06T04:14:57.036Z,7.65
2019-05-06T04:17:53.804Z,7.67
2019-05-06T04:20:37.800Z,7.70
2019-05-06T04:23:29.123Z,7.72
2019-05-06T04:26:13.411Z,7.73
2019-05-06T04:28:46.480Z,7.72
2019-05-06T04:31:22.713Z,7.73
2019-05-06T04:34:10.053Z,7.73
2019-05-06T04:36:33.686Z,7.73
2019-05-06T04:39:06.667Z,7.74
2019-05-06T04:41:43.227Z,7.77
2019-05-06T04:44:16.202Z,7.81
2019-05-06T04:46:49.773Z,7.83
2019-05-06T04:49:23.824Z,7.88
2019-05-06T04:51:58.347Z,7.92
2019-05-06T04:54:33.617Z,7.95
2019-05-06T04:57:07.300Z,7.98
2019-05-06T04:59:43.181Z,8.00
2019-05-06T05:02:15.700Z,8.03
2019-05-06T05:04:52.641Z,8.05
2019-05-06T05:07:25.678Z,8.06
2019-05-06T05:10:14.462Z,8.09
2019-05-06T05:12:56.866Z,8.10
2019-05-06T05:15:48.822Z,8.15
2019-05-06T05:18:29.270Z,8.18
2019-05-06T05:21:03.605Z,8.21
2019-05-06T05:23:37.893Z,8.22
2019-05-06T05:26:12.176Z,8.25
2019-05-06T05:28:46.048Z,8.28
2019-05-06T05:31:19.056Z,8.32
2019-05-06T05:33:53.362Z,8.35
2019-05-06T05:36:26.925Z,8.35
2019-05-06T05:39:03.088Z,8.36
2019-05-06T05:41:36.306Z,8.36
2019-05-06T05:44:17.245Z,8.38
2019-05-06T05:46:52.359Z,8.41
2019-05-06T05:49:47.529Z,8.43
2019-05-06T05:52:22.279Z,8.42
2019-05-06T05:54:56.490Z,8.43
2019-05-06T05:57:31.715Z,8.46
2019-05-06T06:00:05.457Z,8.47
2019-05-06T06:02:38.020Z,8.48
2019-05-06T06:05:12.353Z,8.52
2019-05-06T06:07:44.750Z,8.53
2019-05-06T06:10:26.244Z,8.54
2019-05-06T06:12:58.337Z,8.54
2019-05-06T06:15:37.957Z,8.56
2019-05-06T06:18:27.455Z,8.59
2019-05-06T06:21:24.720Z,8.63
2019-05-06T06:23:54.896Z,8.65
2019-05-06T06:26:26.829Z,8.70
2019-05-06T06:28:59.765Z,8.74
2019-05-06T06:31:52.428Z,8.79
2019-05-06T06:34:30.041Z,8.84
2019-05-06T06:37:28.103Z,8.90
2019-05-06T06:40:02.734Z,8.98
2019-05-06T06:42:36.933Z,9.05
2019-05-06T06:45:12.277Z,9.14
2019-05-06T06:47:46.579Z,9.25
2019-05-06T06:50:22.059Z,9.38
2019-05-06T06:52:56.057Z,9.49
2019-05-06T06:55:31.840Z,9.63
2019-05-06T06:58:28.766Z,9.75
2019-05-06T07:01:28.583Z,9.91
2019-05-06T07:04:23.165Z,10.01
2019-05-06T07:06:57.764Z,10.16
2019-05-06T07:09:32.379Z,10.29
2019-05-06T07:12:06.436Z,10.40
2019-05-06T07:14:42.259Z,10.49
2019-05-06T07:17:15.790Z,10.58
2019-05-06T07:19:53.458Z,10.67
2019-05-06T07:22:32.549Z,10.77
2019-05-06T07:25:07.251Z,10.91
2019-05-06T07:27:42.063Z,11.02
2019-05-06T07:30:15.479Z,11.12
2019-05-06T07:32:48.874Z,11.18
2019-05-06T07:35:23.812Z,11.25
2019-05-06T07:37:55.732Z,11.33
2019-05-06T07:40:28.183Z,11.43
2019-05-06T07:43:02.352Z,11.48
2019-05-06T07:45:45.681Z,11.57
2019-05-06T07:48:17.927Z,11.63
2019-05-06T07:50:52.085Z,11.74
2019-05-06T07:53:25.856Z,11.82
2019-05-06T07:55:57.795Z,11.90
2019-05-06T07:58:32.245Z,11.98
2019-05-06T08:01:04.768Z,12.05
2019-05-06T08:03:37.273Z,12.02
2019-05-06T08:06:09.738Z,12.06
2019-05-06T08:08:43.363Z,12.06
2019-05-06T08:11:15.968Z,12.16
2019-05-06T08:13:48.320Z,12.19
2019-05-06T08:16:22.624Z,12.25
2019-05-06T08:18:56.095Z,12.33
2019-05-06T08:21:32.651Z,12.40
2019-05-06T08:24:05.625Z,12.47
2019-05-06T08:26:38.631Z,12.59
2019-05-06T08:29:12.568Z,12.64
2019-05-06T08:31:46.426Z,12.73
2019-05-06T08:34:22.472Z,12.76
2019-05-06T08:37:22.745Z,12.80
2019-05-06T08:39:55.965Z,12.84
2019-05-06T08:42:28.927Z,12.88
2019-05-06T08:45:02.226Z,12.95
2019-05-06T08:47:36.667Z,12.97
2019-05-06T08:50:42.556Z,12.98
2019-05-06T08:53:30.357Z,12.97
2019-05-06T08:56:05.323Z,13.00
2019-05-06T08:58:48.727Z,13.06
2019-05-06T09:01:32.704Z,13.11
2019-05-06T09:04:12.425Z,13.14
2019-05-06T09:06:43.156Z,13.19
2019-05-06T09:09:17.068Z,13.25
2019-05-06T09:11:53.116Z,13.28
2019-05-06T09:14:26.702Z,13.32
2019-05-06T09:16:59.867Z,13.39
2019-05-06T09:19:33.549Z,13.41
2019-05-06T09:22:07.350Z,13.49
2019-05-06T09:24:42.683Z,13.54
2019-05-06T09:27:22.589Z,13.53
2019-05-06T09:30:02.844Z,13.60
2019-05-06T09:32:42.945Z,13.67
2019-05-06T09:35:16.913Z,13.76
2019-05-06T09:37:53.275Z,13.88
2019-05-06T09:40:25.903Z,13.95
2019-05-06T09:42:59.034Z,13.98
2019-05-06T09:45:33.090Z,13.99
2019-05-06T09:48:34.747Z,14.14
2019-05-06T09:51:08.843Z,14.19
2019-05-06T09:54:01.608Z,14.30
2019-05-06T09:56:45.868Z,14.46
2019-05-06T09:59:21.566Z,14.52
2019-05-06T10:01:55.013Z,14.57
2019-05-06T10:04:28.873Z,14.68
2019-05-06T10:07:02.748Z,14.73
2019-05-06T10:09:37.048Z,14.85
2019-05-06T10:12:12.778Z,14.95
2019-05-06T10:14:47.169Z,15.00
2019-05-06T10:17:21.363Z,15.03
2019-05-06T10:19:55.093Z,14.99
2019-05-06T10:22:28.970Z,15.00
2019-05-06T10:25:03.830Z,14.98
2019-05-06T10:27:39.421Z,14.95
2019-05-06T10:30:12.760Z,15.02
2019-05-06T10:32:49.615Z,15.01
2019-05-06T10:35:26.831Z,15.01
2019-05-06T10:38:33.398Z,15.02
2019-05-06T10:41:13.021Z,14.97
2019-05-06T10:44:35.350Z,14.96
2019-05-06T10:47:08.845Z,14.87
2019-05-06T10:49:42.083Z,14.89
2019-05-06T10:52:25.695Z,14.92
2019-05-06T10:54:58.271Z,14.95
2019-05-06T10:57:35.035Z,15.03
2019-05-06T11:00:09.135Z,15.00
2019-05-06T11:03:14.377Z,15.08
2019-05-06T11:05:46.573Z,15.18
2019-05-06T11:08:22.098Z,15.25
2019-05-06T11:10:55.310Z,15.33
2019-05-06T11:13:28.661Z,15.39
2019-05-06T11:16:03.386Z,15.45
2019-05-06T11:18:36.530Z,15.55
2019-05-06T11:21:12.614Z,15.57
2019-05-06T11:23:45.288Z,15.67
2019-05-06T11:26:17.328Z,15.86
2019-05-06T11:28:56.867Z,16.00
2019-05-06T11:31:49.108Z,16.23
2019-05-06T11:34:45.211Z,16.47
2019-05-06T11:37:47.167Z,16.69
2019-05-06T11:40:17.028Z,16.90
2019-05-06T11:42:49.167Z,17.01
2019-05-06T11:45:22.892Z,16.91
2019-05-06T11:47:56.291Z,16.77
2019-05-06T11:50:28.261Z,16.64
2019-05-06T11:53:02.467Z,16.48
2019-05-06T11:55:38.838Z,16.36
2019-05-06T11:58:28.249Z,16.28
2019-05-06T12:01:04.484Z,16.11
2019-05-06T12:03:37.705Z,15.93
2019-05-06T12:06:13.078Z,16.19
2019-05-06T12:08:47.334Z,16.41
2019-05-06T12:11:23.445Z,16.66
2019-05-06T12:13:55.109Z,16.89
2019-05-06T12:16:27.567Z,17.24
2019-05-06T12:19:02.212Z,17.50
2019-05-06T12:21:34.850Z,17.77
2019-05-06T12:24:07.176Z,17.93
2019-05-06T12:26:42.931Z,18.02
2019-05-06T12:29:17.393Z,17.86
2019-05-06T12:31:55.969Z,17.70
2019-05-06T12:34:29.353Z,17.46
2019-05-06T12:37:04.708Z,17.23
2019-05-06T12:39:38.108Z,16.87
2019-05-06T12:42:16.845Z,16.49
2019-05-06T12:45:27.192Z,16.22
2019-05-06T12:48:06.241Z,16.31
2019-05-06T12:50:39.646Z,16.60
2019-05-06T12:53:13.864Z,17.00
2019-05-06T12:55:47.380Z,17.11
2019-05-06T12:58:23.364Z,17.34
2019-05-06T13:00:57.413Z,17.66
2019-05-06T13:03:32.628Z,18.05
2019-05-06T13:06:08.488Z,18.24
2019-05-06T13:08:56.689Z,18.26
2019-05-06T13:11:18.087Z,18.34
2019-05-06T13:13:59.742Z,18.28
2019-05-06T13:16:27.053Z,18.05
2019-05-06T13:19:03.369Z,17.84
2019-05-06T13:21:36.866Z,17.58
2019-05-06T13:24:12.185Z,17.30
2019-05-06T13:26:46.659Z,17.06
2019-05-06T13:29:24.520Z,16.79
2019-05-06T13:31:56.978Z,16.84
2019-05-06T13:34:29.663Z,16.71
2019-05-06T13:37:03.265Z,16.55
2019-05-06T13:39:35.699Z,16.40
2019-05-06T13:42:07.632Z,16.15
2019-05-06T13:44:39.712Z,15.89
2019-05-06T13:47:15.949Z,15.76
2019-05-06T13:49:56.913Z,15.65
2019-05-06T13:52:36.428Z,15.63
2019-05-06T13:55:09.770Z,15.53
2019-05-06T13:57:42.985Z,15.80
2019-05-06T14:00:18.335Z,15.90
2019-05-06T14:02:54.355Z,15.95
2019-05-06T14:05:28.469Z,15.98
2019-05-06T14:08:04.588Z,16.22
2019-05-06T14:10:35.451Z,16.23
2019-05-06T14:13:07.979Z,16.28
2019-05-06T14:15:42.011Z,16.35
2019-05-06T14:18:14.357Z,16.21
2019-05-06T14:20:48.335Z,16.07
2019-05-06T14:23:22.277Z,15.92
2019-05-06T14:26:28.927Z,15.75
2019-05-06T14:29:16.203Z,15.50
2019-05-06T14:31:52.540Z,15.44
2019-05-06T14:34:25.229Z,15.34
2019-05-06T14:36:58.660Z,15.22
2019-05-06T14:39:48.572Z,15.05
2019-05-06T14:42:08.311Z,14.87
2019-05-06T14:44:43.154Z,14.61
2019-05-06T14:47:25.182Z,14.60
2019-05-06T14:49:57.212Z,14.51
2019-05-06T14:52:33.150Z,14.53
2019-05-06T14:55:27.737Z,14.60
2019-05-06T14:58:04.308Z,14.58
2019-05-06T15:00:36.751Z,14.63
2019-05-06T15:03:12.967Z,14.67
2019-05-06T15:05:46.306Z,14.67
2019-05-06T15:08:22.342Z,14.93
2019-05-06T15:10:55.420Z,15.20
2019-05-06T15:13:31.992Z,15.76
2019-05-06T15:16:05.519Z,16.22
2019-05-06T15:18:39.257Z,16.27
2019-05-06T15:21:32.350Z,16.21
2019-05-06T15:23:47.478Z,16.13
2019-05-06T15:26:22.904Z,16.05
2019-05-06T15:28:56.609Z,16.04
2019-05-06T15:31:42.114Z,16.12
2019-05-06T15:34:22.286Z,16.21
2019-05-06T15:37:04.774Z,16.15
2019-05-06T15:39:38.401Z,16.07
2019-05-06T15:42:12.830Z,15.96
2019-05-06T15:44:47.542Z,15.80
2019-05-06T15:47:22.662Z,15.56
2019-05-06T15:49:56.655Z,15.48
2019-05-06T15:52:32.449Z,15.41
2019-05-06T15:55:05.998Z,15.34
2019-05-06T15:57:39.300Z,15.19
2019-05-06T16:00:17.033Z,14.96
2019-05-06T16:02:52.744Z,14.84
2019-05-06T16:05:26.847Z,14.66
2019-05-06T16:08:02.716Z,14.43
2019-05-06T16:10:51.374Z,14.33
2019-05-06T16:13:12.949Z,14.33
2019-05-06T16:15:46.084Z,14.12
2019-05-06T16:18:20.195Z,13.92
2019-05-06T16:20:57.243Z,13.78
2019-05-06T16:23:38.366Z,13.76
2019-05-06T16:26:12.632Z,13.72
2019-05-06T16:28:46.918Z,13.75
2019-05-06T16:31:22.347Z,13.74
2019-05-06T16:33:56.580Z,13.57
2019-05-06T16:36:32.389Z,13.51
2019-05-06T16:39:07.319Z,13.41
2019-05-06T16:41:42.667Z,13.42
2019-05-06T16:44:16.513Z,13.32
2019-05-06T16:46:52.381Z,13.30
2019-05-06T16:49:27.376Z,13.35
2019-05-06T16:52:02.519Z,13.27
2019-05-06T16:54:35.294Z,13.36
2019-05-06T16:57:23.175Z,13.30
2019-05-06T16:59:57.263Z,13.33
2019-05-06T17:02:38.864Z,13.31
2019-05-06T17:05:29.228Z,13.29
2019-05-06T17:08:03.177Z,13.31
2019-05-06T17:10:35.987Z,13.27
2019-05-06T17:13:09.958Z,13.24
2019-05-06T17:15:44.523Z,13.24
2019-05-06T17:18:18.394Z,13.22
2019-05-06T17:20:52.302Z,13.22
2019-05-06T17:23:27.433Z,13.22
2019-05-06T17:26:01.458Z,13.19
2019-05-06T17:28:53.382Z,13.16
2019-05-06T17:31:49.999Z,13.12
2019-05-06T17:34:26.765Z,13.11
2019-05-06T17:37:04.415Z,13.12
2019-05-06T17:39:36.930Z,13.11
2019-05-06T17:42:11.100Z,13.05
2019-05-06T17:44:44.605Z,12.95
2019-05-06T17:47:40.091Z,12.93
2019-05-06T17:50:13.092Z,12.89
2019-05-06T17:52:46.007Z,12.76
2019-05-06T17:55:18.511Z,12.74
2019-05-06T17:57:52.861Z,12.71
2019-05-06T18:00:26.061Z,12.63
2019-05-06T18:02:59.868Z,12.59
2019-05-06T18:05:32.621Z,12.57
2019-05-06T18:08:05.182Z,12.54
2019-05-06T18:10:37.564Z,12.44
2019-05-06T18:13:12.381Z,12.39
2019-05-06T18:15:44.037Z,12.38
2019-05-06T18:18:17.060Z,12.32
2019-05-06T18:20:52.875Z,12.23
2019-05-06T18:23:25.466Z,12.17
2019-05-06T18:25:58.946Z,12.08
2019-05-06T18:28:32.772Z,12.02
2019-05-06T18:31:06.211Z,11.92
2019-05-06T18:33:39.641Z,11.88
2019-05-06T18:36:13.004Z,11.86
2019-05-06T18:38:45.993Z,11.77
2019-05-06T18:41:18.454Z,11.72
2019-05-06T18:43:53.413Z,11.67
2019-05-06T18:46:27.003Z,11.63
2019-05-06T18:49:02.402Z,11.56
2019-05-06T18:51:35.648Z,11.50
2019-05-06T18:54:09.274Z,11.45
2019-05-06T18:56:43.382Z,11.40
2019-05-06T18:59:17.837Z,11.35
2019-05-06T19:01:53.713Z,11.31
2019-05-06T19:04:33.581Z,11.26
2019-05-06T19:07:14.554Z,11.21
2019-05-06T19:09:55.229Z,11.13
2019-05-06T19:12:32.618Z,11.07
2019-05-06T19:15:04.080Z,11.03
2019-05-06T19:17:36.698Z,11.03
2019-05-06T19:20:10.541Z,11.02
2019-05-06T19:22:43.690Z,10.99
2019-05-06T19:25:16.787Z,10.95
2019-05-06T19:27:49.617Z,10.89
2019-05-06T19:30:23.347Z,10.82
2019-05-06T19:32:56.506Z,10.78
2019-05-06T19:35:32.336Z,10.77
2019-05-06T19:38:05.241Z,10.76
2019-05-06T19:40:38.408Z,10.79
2019-05-06T19:43:12.407Z,10.79
2019-05-06T19:45:45.926Z,10.80
2019-05-06T19:48:19.080Z,10.79
2019-05-06T19:50:52.285Z,10.80
2019-05-06T19:53:26.542Z,10.77
2019-05-06T19:55:59.911Z,10.73
2019-05-06T19:58:34.059Z,10.66
2019-05-06T20:01:07.797Z,10.62
2019-05-06T20:03:42.305Z,10.58
2019-05-06T20:06:36.003Z,10.55
2019-05-06T20:09:35.407Z,10.48
2019-05-06T20:12:12.427Z,10.40
2019-05-06T20:14:46.091Z,10.36
2019-05-06T20:17:19.682Z,10.33
2019-05-06T20:19:52.319Z,10.25
2019-05-06T20:22:25.901Z,10.25
2019-05-06T20:24:59.215Z,10.23
2019-05-06T20:27:32.672Z,10.24
2019-05-06T20:30:06.381Z,10.19
2019-05-06T20:32:39.053Z,10.18
2019-05-06T20:35:13.135Z,10.15
2019-05-06T20:37:47.034Z,10.14
2019-05-06T20:40:22.872Z,10.18
2019-05-06T20:42:56.112Z,10.21
2019-05-06T20:45:32.414Z,10.21
2019-05-06T20:48:04.230Z,10.19
2019-05-06T20:50:38.092Z,10.15
2019-05-06T20:53:12.125Z,10.15
2019-05-06T20:55:45.571Z,10.14
2019-05-06T20:58:19.306Z,10.14
2019-05-06T21:00:52.940Z,10.14
2019-05-06T21:03:27.079Z,10.14
2019-05-06T21:06:02.076Z,10.17
2019-05-06T21:08:35.787Z,10.17
2019-05-06T21:11:24.919Z,10.12
2019-05-06T21:13:45.451Z,10.09
2019-05-06T21:16:19.605Z,10.13
2019-05-06T21:18:53.220Z,10.14
2019-05-06T21:21:27.157Z,10.13
2019-05-06T21:24:02.035Z,10.11
2019-05-06T21:26:36.302Z,10.12
2019-05-06T21:29:09.847Z,10.07
2019-05-06T21:31:43.343Z,10.10
2019-05-06T21:34:17.640Z,10.08
2019-05-06T21:36:53.160Z,10.07
2019-05-06T21:39:26.963Z,10.07
2019-05-06T21:42:00.929Z,10.04
2019-05-06T21:44:34.985Z,10.01
2019-05-06T21:47:08.721Z,9.98
2019-05-06T21:49:42.608Z,9.95
2019-05-06T21:52:16.599Z,9.88
2019-05-06T21:54:52.423Z,9.84
2019-05-06T21:57:26.437Z,9.78
2019-05-06T22:00:02.404Z,9.76
2019-05-06T22:02:35.878Z,9.75
2019-05-06T22:05:09.237Z,9.68
2019-05-06T22:07:43.575Z,9.63
2019-05-06T22:10:16.745Z,9.59
2019-05-06T22:12:52.686Z,9.49
2019-05-06T22:15:26.556Z,9.43
2019-05-06T22:18:02.403Z,9.39
2019-05-06T22:20:54.558Z,9.33
2019-05-06T22:23:29.522Z,9.18
2019-05-06T22:26:13.000Z,9.08
2019-05-06T22:28:38.596Z,8.97
2019-05-06T22:31:12.218Z,8.88
2019-05-06T22:33:45.557Z,8.83
2019-05-06T22:36:19.307Z,8.79
2019-05-06T22:38:53.183Z,8.74
2019-05-06T22:41:26.764Z,8.68
2019-05-06T22:44:12.529Z,8.61
2019-05-06T22:46:36.392Z,8.56
2019-05-06T22:49:10.094Z,8.49
2019-05-06T22:51:43.296Z,8.45
2019-05-06T22:54:17.284Z,8.39
2019-05-06T22:56:52.393Z,8.35
2019-05-06T22:59:26.698Z,8.33
2019-05-06T23:02:07.018Z,8.32
2019-05-06T23:04:40.141Z,8.31
2019-05-06T23:07:14.277Z,8.26
2019-05-06T23:09:48.170Z,8.26
2019-05-06T23:12:23.160Z,8.21
2019-05-06T23:14:56.773Z,8.18
2019-05-06T23:17:34.244Z,8.14
2019-05-06T23:20:06.441Z,7.85
2019-05-06T23:22:42.285Z,7.62
2019-05-06T23:25:15.852Z,7.52
2019-05-06T23:27:48.816Z,7.35
2019-05-06T23:30:23.585Z,7.29
2019-05-06T23:32:57.228Z,7.19
2019-05-06T23:35:31.274Z,6.99
2019-05-06T23:38:56.929Z,6.92
2019-05-06T23:42:22.802Z,6.80
2019-05-06T23:45:49.511Z,6.72
2019-05-06T23:49:14.834Z,6.65
2019-05-06T23:52:39.914Z,6.65
2019-05-06T23:56:04.954Z,6.57
2019-05-06T23:58:38.250Z,6.57
